sensor_id;sensor_type;location;lat;lon;timestamp;P1;durP1;ratioP1;P2;durP2;ratioP2
51238;SDS011;38154;47.548;18.828;2022-11-20T00:01:45;7.97;;;4.20;;
51238;SDS011;38154;47.548;18.828;2022-11-20T00:04:11;6.60;;;5.07;;
51238;SDS011;38154;47.548;18.828;2022-11-20T00:06:37;12.27;;;4.57;;
51238;SDS011;38154;47.548;18.828;2022-11-20T00:09:03;8.68;;;3.78;;
51238;SDS011;38154;47.548;18.828;2022-11-20T00:11:30;9.55;;;4.72;;
51238;SDS011;38154;47.548;18.828;2022-11-20T00:13:58;10.52;;;4.37;;
51238;SDS011;38154;47.548;18.828;2022-11-20T00:16:26;10.60;;;4.90;;
51238;SDS011;38154;47.548;18.828;2022-11-20T00:18:53;4.05;;;2.70;;
51238;SDS011;38154;47.548;18.828;2022-11-20T00:21:21;5.40;;;2.95;;
51238;SDS011;38154;47.548;18.828;2022-11-20T00:23:53;5.35;;;3.20;;
51238;SDS011;38154;47.548;18.828;2022-11-20T00:26:20;6.70;;;3.72;;
51238;SDS011;38154;47.548;18.828;2022-11-20T00:28:53;6.75;;;4.03;;
51238;SDS011;38154;47.548;18.828;2022-11-20T00:31:21;9.25;;;4.30;;
51238;SDS011;38154;47.548;18.828;2022-11-20T00:33:47;11.60;;;4.70;;
51238;SDS011;38154;47.548;18.828;2022-11-20T00:36:17;9.60;;;5.00;;
51238;SDS011;38154;47.548;18.828;2022-11-20T00:38:51;14.40;;;6.05;;
51238;SDS011;38154;47.548;18.828;2022-11-20T00:41:18;8.75;;;3.92;;
51238;SDS011;38154;47.548;18.828;2022-11-20T00:43:43;11.48;;;5.30;;
51238;SDS011;38154;47.548;18.828;2022-11-20T00:46:13;5.05;;;3.40;;
51238;SDS011;38154;47.548;18.828;2022-11-20T00:48:41;8.75;;;3.70;;
51238;SDS011;38154;47.548;18.828;2022-11-20T00:51:07;11.27;;;5.22;;
51238;SDS011;38154;47.548;18.828;2022-11-20T00:53:33;7.97;;;4.00;;
51238;SDS011;38154;47.548;18.828;2022-11-20T00:56:00;11.38;;;4.00;;
51238;SDS011;38154;47.548;18.828;2022-11-20T00:58:34;14.55;;;6.05;;
51238;SDS011;38154;47.548;18.828;2022-11-20T01:01:08;10.05;;;5.25;;
51238;SDS011;38154;47.548;18.828;2022-11-20T01:03:42;15.38;;;4.45;;
51238;SDS011;38154;47.548;18.828;2022-11-20T01:06:12;9.43;;;3.97;;
51238;SDS011;38154;47.548;18.828;2022-11-20T01:08:43;9.18;;;4.07;;
51238;SDS011;38154;47.548;18.828;2022-11-20T01:11:10;15.68;;;5.03;;
51238;SDS011;38154;47.548;18.828;2022-11-20T01:13:38;6.10;;;3.83;;
51238;SDS011;38154;47.548;18.828;2022-11-20T01:18:32;7.93;;;3.53;;
51238;SDS011;38154;47.548;18.828;2022-11-20T01:21:01;10.07;;;4.90;;
51238;SDS011;38154;47.548;18.828;2022-11-20T01:23:30;13.30;;;5.07;;
51238;SDS011;38154;47.548;18.828;2022-11-20T01:26:00;9.05;;;4.40;;
51238;SDS011;38154;47.548;18.828;2022-11-20T01:28:28;7.97;;;4.12;;
51238;SDS011;38154;47.548;18.828;2022-11-20T01:30:54;11.02;;;4.82;;
51238;SDS011;38154;47.548;18.828;2022-11-20T01:33:20;9.75;;;3.67;;
51238;SDS011;38154;47.548;18.828;2022-11-20T01:35:46;4.82;;;3.37;;
51238;SDS011;38154;47.548;18.828;2022-11-20T01:38:12;6.50;;;4.03;;
51238;SDS011;38154;47.548;18.828;2022-11-20T01:40:38;8.68;;;4.47;;
51238;SDS011;38154;47.548;18.828;2022-11-20T01:43:37;13.13;;;4.12;;
51238;SDS011;38154;47.548;18.828;2022-11-20T01:48:40;9.50;;;4.70;;
51238;SDS011;38154;47.548;18.828;2022-11-20T01:51:21;18.77;;;6.82;;
51238;SDS011;38154;47.548;18.828;2022-11-20T01:53:55;19.80;;;6.53;;
51238;SDS011;38154;47.548;18.828;2022-11-20T01:56:25;21.33;;;7.40;;
51238;SDS011;38154;47.548;18.828;2022-11-20T01:58:53;11.82;;;4.85;;
51238;SDS011;38154;47.548;18.828;2022-11-20T02:01:22;11.07;;;5.72;;
51238;SDS011;38154;47.548;18.828;2022-11-20T02:03:48;7.87;;;4.37;;
51238;SDS011;38154;47.548;18.828;2022-11-20T02:06:17;14.50;;;4.60;;
51238;SDS011;38154;47.548;18.828;2022-11-20T02:08:48;7.78;;;4.18;;
51238;SDS011;38154;47.548;18.828;2022-11-20T02:11:14;13.60;;;5.35;;
51238;SDS011;38154;47.548;18.828;2022-11-20T02:13:40;18.50;;;5.90;;
51238;SDS011;38154;47.548;18.828;2022-11-20T02:16:17;12.73;;;4.10;;
51238;SDS011;38154;47.548;18.828;2022-11-20T02:18:46;15.63;;;5.22;;
51238;SDS011;38154;47.548;18.828;2022-11-20T02:21:14;9.77;;;4.43;;
51238;SDS011;38154;47.548;18.828;2022-11-20T02:26:44;9.35;;;4.20;;
51238;SDS011;38154;47.548;18.828;2022-11-20T02:29:15;7.37;;;3.92;;
51238;SDS011;38154;47.548;18.828;2022-11-20T02:31:44;6.35;;;3.55;;
51238;SDS011;38154;47.548;18.828;2022-11-20T02:34:10;12.02;;;4.53;;
51238;SDS011;38154;47.548;18.828;2022-11-20T02:36:36;10.55;;;4.95;;
51238;SDS011;38154;47.548;18.828;2022-11-20T02:39:07;15.80;;;4.82;;
51238;SDS011;38154;47.548;18.828;2022-11-20T02:41:35;14.57;;;5.50;;
51238;SDS011;38154;47.548;18.828;2022-11-20T02:44:03;13.43;;;5.87;;
51238;SDS011;38154;47.548;18.828;2022-11-20T02:46:29;13.27;;;4.55;;
51238;SDS011;38154;47.548;18.828;2022-11-20T02:48:56;12.75;;;5.20;;
51238;SDS011;38154;47.548;18.828;2022-11-20T02:51:22;12.63;;;5.12;;
51238;SDS011;38154;47.548;18.828;2022-11-20T02:53:48;13.60;;;6.78;;
51238;SDS011;38154;47.548;18.828;2022-11-20T02:56:14;12.20;;;5.30;;
51238;SDS011;38154;47.548;18.828;2022-11-20T02:58:41;10.85;;;4.80;;
51238;SDS011;38154;47.548;18.828;2022-11-20T03:01:07;8.73;;;4.03;;
51238;SDS011;38154;47.548;18.828;2022-11-20T03:03:32;14.50;;;6.60;;
51238;SDS011;38154;47.548;18.828;2022-11-20T03:05:59;17.25;;;6.40;;
51238;SDS011;38154;47.548;18.828;2022-11-20T03:08:25;8.98;;;4.93;;
51238;SDS011;38154;47.548;18.828;2022-11-20T03:10:51;7.55;;;4.47;;
51238;SDS011;38154;47.548;18.828;2022-11-20T03:13:18;9.02;;;5.37;;
51238;SDS011;38154;47.548;18.828;2022-11-20T03:15:43;10.23;;;4.72;;
51238;SDS011;38154;47.548;18.828;2022-11-20T03:18:09;13.40;;;5.57;;
51238;SDS011;38154;47.548;18.828;2022-11-20T03:20:35;12.10;;;7.10;;
51238;SDS011;38154;47.548;18.828;2022-11-20T03:23:01;11.52;;;4.85;;
51238;SDS011;38154;47.548;18.828;2022-11-20T03:25:27;16.80;;;6.55;;
51238;SDS011;38154;47.548;18.828;2022-11-20T03:27:54;11.43;;;5.10;;
51238;SDS011;38154;47.548;18.828;2022-11-20T03:30:20;12.10;;;5.50;;
51238;SDS011;38154;47.548;18.828;2022-11-20T03:32:46;13.65;;;6.47;;
51238;SDS011;38154;47.548;18.828;2022-11-20T03:35:11;12.82;;;5.20;;
51238;SDS011;38154;47.548;18.828;2022-11-20T03:37:37;15.65;;;6.30;;
51238;SDS011;38154;47.548;18.828;2022-11-20T03:40:03;14.02;;;5.32;;
51238;SDS011;38154;47.548;18.828;2022-11-20T03:42:30;10.52;;;5.82;;
51238;SDS011;38154;47.548;18.828;2022-11-20T03:45:10;9.77;;;4.97;;
51238;SDS011;38154;47.548;18.828;2022-11-20T03:50:03;12.85;;;4.50;;
51238;SDS011;38154;47.548;18.828;2022-11-20T03:52:29;9.68;;;5.05;;
51238;SDS011;38154;47.548;18.828;2022-11-20T03:54:55;11.82;;;5.32;;
51238;SDS011;38154;47.548;18.828;2022-11-20T03:57:21;14.32;;;6.45;;
51238;SDS011;38154;47.548;18.828;2022-11-20T03:59:47;13.80;;;5.85;;
51238;SDS011;38154;47.548;18.828;2022-11-20T04:02:13;13.70;;;6.35;;
51238;SDS011;38154;47.548;18.828;2022-11-20T04:04:39;11.45;;;5.00;;
51238;SDS011;38154;47.548;18.828;2022-11-20T04:07:05;14.63;;;7.53;;
51238;SDS011;38154;47.548;18.828;2022-11-20T04:09:30;13.65;;;4.75;;
51238;SDS011;38154;47.548;18.828;2022-11-20T04:11:56;14.00;;;6.00;;
51238;SDS011;38154;47.548;18.828;2022-11-20T04:14:22;15.48;;;6.90;;
51238;SDS011;38154;47.548;18.828;2022-11-20T04:16:48;13.73;;;4.78;;
51238;SDS011;38154;47.548;18.828;2022-11-20T04:19:15;17.37;;;6.53;;
51238;SDS011;38154;47.548;18.828;2022-11-20T04:21:42;18.80;;;7.00;;
51238;SDS011;38154;47.548;18.828;2022-11-20T04:24:09;21.48;;;7.50;;
51238;SDS011;38154;47.548;18.828;2022-11-20T04:26:36;18.27;;;5.97;;
51238;SDS011;38154;47.548;18.828;2022-11-20T04:29:02;11.65;;;5.35;;
51238;SDS011;38154;47.548;18.828;2022-11-20T04:31:30;11.30;;;4.80;;
51238;SDS011;38154;47.548;18.828;2022-11-20T04:34:01;21.27;;;7.55;;
51238;SDS011;38154;47.548;18.828;2022-11-20T04:36:29;9.68;;;5.20;;
51238;SDS011;38154;47.548;18.828;2022-11-20T04:41:23;11.40;;;7.10;;
51238;SDS011;38154;47.548;18.828;2022-11-20T04:43:51;14.75;;;5.65;;
51238;SDS011;38154;47.548;18.828;2022-11-20T04:46:19;20.35;;;6.65;;
51238;SDS011;38154;47.548;18.828;2022-11-20T04:48:46;18.35;;;6.93;;
51238;SDS011;38154;47.548;18.828;2022-11-20T04:51:12;10.13;;;5.78;;
51238;SDS011;38154;47.548;18.828;2022-11-20T04:53:38;10.38;;;5.30;;
51238;SDS011;38154;47.548;18.828;2022-11-20T04:56:05;13.62;;;5.30;;
51238;SDS011;38154;47.548;18.828;2022-11-20T04:58:33;16.50;;;4.57;;
51238;SDS011;38154;47.548;18.828;2022-11-20T05:01:03;12.57;;;4.57;;
51238;SDS011;38154;47.548;18.828;2022-11-20T05:03:31;13.62;;;5.68;;
51238;SDS011;38154;47.548;18.828;2022-11-20T05:05:59;13.00;;;5.90;;
51238;SDS011;38154;47.548;18.828;2022-11-20T05:08:27;10.85;;;5.57;;
51238;SDS011;38154;47.548;18.828;2022-11-20T05:10:53;10.10;;;4.85;;
51238;SDS011;38154;47.548;18.828;2022-11-20T05:13:19;9.63;;;4.65;;
51238;SDS011;38154;47.548;18.828;2022-11-20T05:15:45;5.97;;;3.28;;
51238;SDS011;38154;47.548;18.828;2022-11-20T05:18:11;20.77;;;6.50;;
51238;SDS011;38154;47.548;18.828;2022-11-20T05:20:36;11.30;;;5.35;;
51238;SDS011;38154;47.548;18.828;2022-11-20T05:23:02;9.75;;;6.47;;
51238;SDS011;38154;47.548;18.828;2022-11-20T05:25:28;12.13;;;4.85;;
51238;SDS011;38154;47.548;18.828;2022-11-20T05:27:54;13.93;;;6.05;;
51238;SDS011;38154;47.548;18.828;2022-11-20T05:30:20;8.65;;;4.32;;
51238;SDS011;38154;47.548;18.828;2022-11-20T05:32:46;12.70;;;5.10;;
51238;SDS011;38154;47.548;18.828;2022-11-20T05:35:11;12.63;;;6.47;;
51238;SDS011;38154;47.548;18.828;2022-11-20T05:37:37;7.47;;;4.57;;
51238;SDS011;38154;47.548;18.828;2022-11-20T05:40:03;15.43;;;6.10;;
51238;SDS011;38154;47.548;18.828;2022-11-20T05:42:30;9.18;;;4.55;;
51238;SDS011;38154;47.548;18.828;2022-11-20T05:45:00;18.67;;;5.43;;
51238;SDS011;38154;47.548;18.828;2022-11-20T05:47:27;13.68;;;5.37;;
51238;SDS011;38154;47.548;18.828;2022-11-20T05:49:56;10.10;;;4.60;;
51238;SDS011;38154;47.548;18.828;2022-11-20T05:52:22;9.13;;;5.47;;
51238;SDS011;38154;47.548;18.828;2022-11-20T05:54:48;11.27;;;5.75;;
51238;SDS011;38154;47.548;18.828;2022-11-20T05:57:14;12.88;;;3.90;;
51238;SDS011;38154;47.548;18.828;2022-11-20T05:59:40;11.02;;;4.97;;
51238;SDS011;38154;47.548;18.828;2022-11-20T06:02:06;9.90;;;4.80;;
51238;SDS011;38154;47.548;18.828;2022-11-20T06:04:32;12.27;;;5.80;;
51238;SDS011;38154;47.548;18.828;2022-11-20T06:06:58;10.25;;;4.37;;
51238;SDS011;38154;47.548;18.828;2022-11-20T06:09:24;15.98;;;5.15;;
51238;SDS011;38154;47.548;18.828;2022-11-20T06:11:49;9.45;;;4.25;;
51238;SDS011;38154;47.548;18.828;2022-11-20T06:14:15;12.65;;;5.20;;
51238;SDS011;38154;47.548;18.828;2022-11-20T06:16:41;12.70;;;4.90;;
51238;SDS011;38154;47.548;18.828;2022-11-20T06:19:07;12.82;;;5.20;;
51238;SDS011;38154;47.548;18.828;2022-11-20T06:21:33;8.70;;;5.05;;
51238;SDS011;38154;47.548;18.828;2022-11-20T06:23:59;14.32;;;6.20;;
51238;SDS011;38154;47.548;18.828;2022-11-20T06:26:25;10.90;;;5.05;;
51238;SDS011;38154;47.548;18.828;2022-11-20T06:28:53;13.23;;;6.40;;
51238;SDS011;38154;47.548;18.828;2022-11-20T06:31:20;11.60;;;4.68;;
51238;SDS011;38154;47.548;18.828;2022-11-20T06:33:48;13.80;;;5.97;;
51238;SDS011;38154;47.548;18.828;2022-11-20T06:36:14;10.17;;;5.07;;
51238;SDS011;38154;47.548;18.828;2022-11-20T06:38:41;13.88;;;5.68;;
51238;SDS011;38154;47.548;18.828;2022-11-20T06:41:13;9.95;;;3.90;;
51238;SDS011;38154;47.548;18.828;2022-11-20T06:43:41;15.15;;;6.47;;
51238;SDS011;38154;47.548;18.828;2022-11-20T06:46:08;14.95;;;5.95;;
51238;SDS011;38154;47.548;18.828;2022-11-20T06:48:35;15.57;;;5.90;;
51238;SDS011;38154;47.548;18.828;2022-11-20T06:51:04;17.35;;;6.47;;
51238;SDS011;38154;47.548;18.828;2022-11-20T06:53:32;14.93;;;5.87;;
51238;SDS011;38154;47.548;18.828;2022-11-20T06:55:58;12.63;;;6.17;;
51238;SDS011;38154;47.548;18.828;2022-11-20T06:58:26;13.27;;;6.10;;
51238;SDS011;38154;47.548;18.828;2022-11-20T07:00:53;12.37;;;5.53;;
51238;SDS011;38154;47.548;18.828;2022-11-20T07:03:23;17.48;;;6.22;;
51238;SDS011;38154;47.548;18.828;2022-11-20T07:05:48;16.27;;;7.65;;
51238;SDS011;38154;47.548;18.828;2022-11-20T07:08:14;12.77;;;5.75;;
51238;SDS011;38154;47.548;18.828;2022-11-20T07:10:40;19.42;;;8.20;;
51238;SDS011;38154;47.548;18.828;2022-11-20T07:13:06;20.92;;;8.10;;
51238;SDS011;38154;47.548;18.828;2022-11-20T07:15:32;26.10;;;8.95;;
51238;SDS011;38154;47.548;18.828;2022-11-20T07:17:58;18.17;;;7.22;;
51238;SDS011;38154;47.548;18.828;2022-11-20T07:20:25;15.20;;;7.72;;
51238;SDS011;38154;47.548;18.828;2022-11-20T07:22:54;20.47;;;8.00;;
51238;SDS011;38154;47.548;18.828;2022-11-20T07:25:21;14.27;;;7.07;;
51238;SDS011;38154;47.548;18.828;2022-11-20T07:30:14;10.90;;;5.05;;
51238;SDS011;38154;47.548;18.828;2022-11-20T07:32:46;13.20;;;5.47;;
51238;SDS011;38154;47.548;18.828;2022-11-20T07:35:13;20.67;;;7.95;;
51238;SDS011;38154;47.548;18.828;2022-11-20T07:37:39;14.55;;;5.72;;
51238;SDS011;38154;47.548;18.828;2022-11-20T07:40:05;15.57;;;6.18;;
51238;SDS011;38154;47.548;18.828;2022-11-20T07:42:31;11.20;;;5.62;;
51238;SDS011;38154;47.548;18.828;2022-11-20T07:44:56;15.48;;;6.07;;
51238;SDS011;38154;47.548;18.828;2022-11-20T07:47:22;17.70;;;5.97;;
51238;SDS011;38154;47.548;18.828;2022-11-20T07:49:48;15.93;;;7.10;;
51238;SDS011;38154;47.548;18.828;2022-11-20T07:52:14;20.45;;;8.18;;
51238;SDS011;38154;47.548;18.828;2022-11-20T07:54:40;21.95;;;7.43;;
51238;SDS011;38154;47.548;18.828;2022-11-20T07:57:06;15.35;;;7.50;;
51238;SDS011;38154;47.548;18.828;2022-11-20T07:59:31;18.62;;;6.28;;
51238;SDS011;38154;47.548;18.828;2022-11-20T08:01:57;20.35;;;7.12;;
51238;SDS011;38154;47.548;18.828;2022-11-20T08:04:23;16.05;;;7.93;;
51238;SDS011;38154;47.548;18.828;2022-11-20T08:06:49;23.12;;;9.25;;
51238;SDS011;38154;47.548;18.828;2022-11-20T08:09:15;24.05;;;9.85;;
51238;SDS011;38154;47.548;18.828;2022-11-20T08:11:40;26.48;;;12.23;;
51238;SDS011;38154;47.548;18.828;2022-11-20T08:14:25;32.40;;;10.52;;
51238;SDS011;38154;47.548;18.828;2022-11-20T08:16:52;22.70;;;10.77;;
51238;SDS011;38154;47.548;18.828;2022-11-20T08:19:19;25.10;;;10.07;;
51238;SDS011;38154;47.548;18.828;2022-11-20T08:21:44;23.52;;;10.02;;
51238;SDS011;38154;47.548;18.828;2022-11-20T08:24:11;27.70;;;10.18;;
51238;SDS011;38154;47.548;18.828;2022-11-20T08:26:37;12.07;;;6.53;;
51238;SDS011;38154;47.548;18.828;2022-11-20T08:29:05;19.20;;;6.95;;
51238;SDS011;38154;47.548;18.828;2022-11-20T08:31:31;21.08;;;9.60;;
51238;SDS011;38154;47.548;18.828;2022-11-20T08:33:57;24.03;;;9.73;;
51238;SDS011;38154;47.548;18.828;2022-11-20T08:36:23;27.13;;;9.38;;
51238;SDS011;38154;47.548;18.828;2022-11-20T08:38:53;21.62;;;9.38;;
51238;SDS011;38154;47.548;18.828;2022-11-20T08:41:20;20.35;;;7.85;;
51238;SDS011;38154;47.548;18.828;2022-11-20T08:43:50;16.58;;;7.53;;
51238;SDS011;38154;47.548;18.828;2022-11-20T08:46:17;25.65;;;8.38;;
51238;SDS011;38154;47.548;18.828;2022-11-20T08:48:43;27.00;;;9.63;;
51238;SDS011;38154;47.548;18.828;2022-11-20T08:51:09;21.23;;;9.03;;
51238;SDS011;38154;47.548;18.828;2022-11-20T08:53:36;21.17;;;8.55;;
51238;SDS011;38154;47.548;18.828;2022-11-20T08:56:02;24.05;;;9.20;;
51238;SDS011;38154;47.548;18.828;2022-11-20T08:58:27;26.55;;;11.12;;
51238;SDS011;38154;47.548;18.828;2022-11-20T09:00:53;38.03;;;15.57;;
51238;SDS011;38154;47.548;18.828;2022-11-20T09:03:19;30.75;;;12.52;;
51238;SDS011;38154;47.548;18.828;2022-11-20T09:05:45;35.10;;;14.23;;
51238;SDS011;38154;47.548;18.828;2022-11-20T09:08:11;42.75;;;14.57;;
51238;SDS011;38154;47.548;18.828;2022-11-20T09:10:37;26.45;;;10.07;;
51238;SDS011;38154;47.548;18.828;2022-11-20T09:13:05;15.60;;;8.20;;
51238;SDS011;38154;47.548;18.828;2022-11-20T09:15:31;19.55;;;8.73;;
51238;SDS011;38154;47.548;18.828;2022-11-20T09:18:00;17.20;;;7.30;;
51238;SDS011;38154;47.548;18.828;2022-11-20T09:20:29;16.55;;;7.40;;
51238;SDS011;38154;47.548;18.828;2022-11-20T09:22:55;17.80;;;8.05;;
51238;SDS011;38154;47.548;18.828;2022-11-20T09:27:47;12.90;;;7.40;;
51238;SDS011;38154;47.548;18.828;2022-11-20T09:30:19;24.52;;;8.80;;
51238;SDS011;38154;47.548;18.828;2022-11-20T09:32:45;14.57;;;6.60;;
51238;SDS011;38154;47.548;18.828;2022-11-20T09:35:11;18.87;;;6.87;;
51238;SDS011;38154;47.548;18.828;2022-11-20T09:37:37;15.00;;;7.30;;
51238;SDS011;38154;47.548;18.828;2022-11-20T09:40:03;22.93;;;7.57;;
51238;SDS011;38154;47.548;18.828;2022-11-20T09:45:31;21.52;;;8.18;;
51238;SDS011;38154;47.548;18.828;2022-11-20T09:53:57;21.40;;;8.85;;
51238;SDS011;38154;47.548;18.828;2022-11-20T09:56:31;16.67;;;6.85;;
51238;SDS011;38154;47.548;18.828;2022-11-20T09:58:59;25.05;;;9.20;;
51238;SDS011;38154;47.548;18.828;2022-11-20T10:01:31;13.18;;;7.03;;
51238;SDS011;38154;47.548;18.828;2022-11-20T10:04:08;14.43;;;8.02;;
51238;SDS011;38154;47.548;18.828;2022-11-20T10:06:41;20.65;;;8.02;;
51238;SDS011;38154;47.548;18.828;2022-11-20T10:09:27;15.43;;;7.12;;
51238;SDS011;38154;47.548;18.828;2022-11-20T10:15:27;14.77;;;7.75;;
51238;SDS011;38154;47.548;18.828;2022-11-20T10:20:27;14.55;;;7.35;;
51238;SDS011;38154;47.548;18.828;2022-11-20T10:25:53;23.87;;;10.02;;
51238;SDS011;38154;47.548;18.828;2022-11-20T10:39:59;19.50;;;8.38;;
51238;SDS011;38154;47.548;18.828;2022-11-20T10:42:41;20.08;;;9.80;;
51238;SDS011;38154;47.548;18.828;2022-11-20T10:47:50;17.25;;;8.55;;
51238;SDS011;38154;47.548;18.828;2022-11-20T10:50:19;15.90;;;8.15;;
51238;SDS011;38154;47.548;18.828;2022-11-20T10:55:56;18.75;;;8.40;;
51238;SDS011;38154;47.548;18.828;2022-11-20T10:58:29;23.77;;;7.82;;
51238;SDS011;38154;47.548;18.828;2022-11-20T11:01:14;21.37;;;9.77;;
51238;SDS011;38154;47.548;18.828;2022-11-20T11:03:41;15.57;;;7.72;;
51238;SDS011;38154;47.548;18.828;2022-11-20T11:06:17;19.52;;;9.45;;
51238;SDS011;38154;47.548;18.828;2022-11-20T11:08:49;22.23;;;9.63;;
51238;SDS011;38154;47.548;18.828;2022-11-20T11:13:48;22.15;;;8.73;;
51238;SDS011;38154;47.548;18.828;2022-11-20T11:16:22;18.65;;;8.43;;
51238;SDS011;38154;47.548;18.828;2022-11-20T11:18:50;14.82;;;7.55;;
51238;SDS011;38154;47.548;18.828;2022-11-20T11:21:23;20.52;;;8.10;;
51238;SDS011;38154;47.548;18.828;2022-11-20T11:24:00;22.52;;;9.07;;
51238;SDS011;38154;47.548;18.828;2022-11-20T11:26:29;25.40;;;9.70;;
51238;SDS011;38154;47.548;18.828;2022-11-20T11:28:56;19.92;;;8.02;;
51238;SDS011;38154;47.548;18.828;2022-11-20T11:31:24;18.73;;;8.32;;
51238;SDS011;38154;47.548;18.828;2022-11-20T11:34:06;25.40;;;9.93;;
51238;SDS011;38154;47.548;18.828;2022-11-20T11:36:36;22.52;;;9.48;;
51238;SDS011;38154;47.548;18.828;2022-11-20T11:39:03;23.40;;;9.20;;
51238;SDS011;38154;47.548;18.828;2022-11-20T11:41:32;21.75;;;9.45;;
51238;SDS011;38154;47.548;18.828;2022-11-20T11:44:18;19.55;;;8.40;;
51238;SDS011;38154;47.548;18.828;2022-11-20T11:47:05;26.75;;;10.43;;
51238;SDS011;38154;47.548;18.828;2022-11-20T11:49:36;30.12;;;12.07;;
51238;SDS011;38154;47.548;18.828;2022-11-20T11:52:13;32.92;;;13.65;;
51238;SDS011;38154;47.548;18.828;2022-11-20T11:54:55;25.70;;;9.50;;
51238;SDS011;38154;47.548;18.828;2022-11-20T11:57:29;20.50;;;9.73;;
51238;SDS011;38154;47.548;18.828;2022-11-20T12:00:19;27.25;;;10.75;;
51238;SDS011;38154;47.548;18.828;2022-11-20T12:02:49;35.28;;;12.05;;
51238;SDS011;38154;47.548;18.828;2022-11-20T12:05:27;33.58;;;13.15;;
51238;SDS011;38154;47.548;18.828;2022-11-20T12:08:04;34.67;;;12.68;;
51238;SDS011;38154;47.548;18.828;2022-11-20T12:16:14;32.50;;;11.35;;
51238;SDS011;38154;47.548;18.828;2022-11-20T12:18:43;23.65;;;9.20;;
51238;SDS011;38154;47.548;18.828;2022-11-20T12:21:28;37.60;;;14.80;;
51238;SDS011;38154;47.548;18.828;2022-11-20T12:24:25;40.45;;;15.63;;
51238;SDS011;38154;47.548;18.828;2022-11-20T12:27:25;31.15;;;10.52;;
51238;SDS011;38154;47.548;18.828;2022-11-20T12:30:09;25.83;;;10.90;;
51238;SDS011;38154;47.548;18.828;2022-11-20T12:44:12;24.83;;;9.57;;
51238;SDS011;38154;47.548;18.828;2022-11-20T12:55:12;22.77;;;9.40;;
51238;SDS011;38154;47.548;18.828;2022-11-20T12:57:57;25.23;;;9.95;;
51238;SDS011;38154;47.548;18.828;2022-11-20T13:00:31;22.73;;;10.23;;
51238;SDS011;38154;47.548;18.828;2022-11-20T13:05:51;32.47;;;10.63;;
51238;SDS011;38154;47.548;18.828;2022-11-20T13:08:21;29.45;;;11.60;;
51238;SDS011;38154;47.548;18.828;2022-11-20T13:10:58;18.00;;;9.05;;
51238;SDS011;38154;47.548;18.828;2022-11-20T13:16:19;27.08;;;13.15;;
51238;SDS011;38154;47.548;18.828;2022-11-20T13:18:54;24.15;;;11.35;;
51238;SDS011;38154;47.548;18.828;2022-11-20T13:21:21;23.48;;;9.70;;
51238;SDS011;38154;47.548;18.828;2022-11-20T13:24:04;19.55;;;9.98;;
51238;SDS011;38154;47.548;18.828;2022-11-20T13:26:30;32.35;;;12.20;;
51238;SDS011;38154;47.548;18.828;2022-11-20T13:29:08;29.25;;;13.15;;
51238;SDS011;38154;47.548;18.828;2022-11-20T13:31:36;31.95;;;13.07;;
51238;SDS011;38154;47.548;18.828;2022-11-20T13:34:10;23.30;;;11.05;;
51238;SDS011;38154;47.548;18.828;2022-11-20T13:36:55;24.85;;;10.82;;
51238;SDS011;38154;47.548;18.828;2022-11-20T13:44:42;23.02;;;9.23;;
51238;SDS011;38154;47.548;18.828;2022-11-20T13:47:22;20.85;;;9.90;;
51238;SDS011;38154;47.548;18.828;2022-11-20T13:49:51;23.27;;;10.60;;
51238;SDS011;38154;47.548;18.828;2022-11-20T13:55:31;20.52;;;9.27;;
51238;SDS011;38154;47.548;18.828;2022-11-20T13:58:18;27.20;;;11.07;;
51238;SDS011;38154;47.548;18.828;2022-11-20T14:01:09;23.55;;;10.10;;
51238;SDS011;38154;47.548;18.828;2022-11-20T14:03:57;24.45;;;9.10;;
51238;SDS011;38154;47.548;18.828;2022-11-20T14:06:27;23.40;;;10.27;;
51238;SDS011;38154;47.548;18.828;2022-11-20T14:08:55;27.65;;;11.12;;
51238;SDS011;38154;47.548;18.828;2022-11-20T14:11:22;24.50;;;10.73;;
51238;SDS011;38154;47.548;18.828;2022-11-20T14:16:42;23.05;;;9.55;;
51238;SDS011;38154;47.548;18.828;2022-11-20T14:21:46;17.40;;;8.63;;
51238;SDS011;38154;47.548;18.828;2022-11-20T14:24:13;20.15;;;10.35;;
51238;SDS011;38154;47.548;18.828;2022-11-20T14:26:43;25.45;;;10.15;;
51238;SDS011;38154;47.548;18.828;2022-11-20T14:29:13;22.48;;;9.32;;
51238;SDS011;38154;47.548;18.828;2022-11-20T14:31:41;21.98;;;10.32;;
51238;SDS011;38154;47.548;18.828;2022-11-20T14:34:15;25.95;;;9.18;;
51238;SDS011;38154;47.548;18.828;2022-11-20T14:36:44;20.50;;;7.97;;
51238;SDS011;38154;47.548;18.828;2022-11-20T14:39:11;21.50;;;9.35;;
51238;SDS011;38154;47.548;18.828;2022-11-20T14:41:51;30.50;;;11.40;;
51238;SDS011;38154;47.548;18.828;2022-11-20T14:44:19;26.37;;;8.23;;
51238;SDS011;38154;47.548;18.828;2022-11-20T14:46:49;19.62;;;8.25;;
51238;SDS011;38154;47.548;18.828;2022-11-20T14:49:16;21.20;;;8.85;;
51238;SDS011;38154;47.548;18.828;2022-11-20T14:51:42;20.95;;;10.35;;
51238;SDS011;38154;47.548;18.828;2022-11-20T14:54:09;18.30;;;8.18;;
51238;SDS011;38154;47.548;18.828;2022-11-20T14:56:36;20.98;;;8.93;;
51238;SDS011;38154;47.548;18.828;2022-11-20T14:59:02;24.33;;;11.03;;
51238;SDS011;38154;47.548;18.828;2022-11-20T15:01:29;26.87;;;11.02;;
51238;SDS011;38154;47.548;18.828;2022-11-20T15:04:00;23.50;;;10.27;;
51238;SDS011;38154;47.548;18.828;2022-11-20T15:06:27;27.00;;;8.80;;
51238;SDS011;38154;47.548;18.828;2022-11-20T15:08:53;14.52;;;7.95;;
51238;SDS011;38154;47.548;18.828;2022-11-20T15:11:20;19.50;;;9.07;;
51238;SDS011;38154;47.548;18.828;2022-11-20T15:13:52;18.95;;;8.48;;
51238;SDS011;38154;47.548;18.828;2022-11-20T15:16:19;20.45;;;8.10;;
51238;SDS011;38154;47.548;18.828;2022-11-20T15:18:46;20.60;;;8.48;;
51238;SDS011;38154;47.548;18.828;2022-11-20T15:21:16;26.58;;;9.85;;
51238;SDS011;38154;47.548;18.828;2022-11-20T15:23:44;17.90;;;8.48;;
51238;SDS011;38154;47.548;18.828;2022-11-20T15:26:10;17.35;;;8.90;;
51238;SDS011;38154;47.548;18.828;2022-11-20T15:28:42;19.65;;;8.55;;
51238;SDS011;38154;47.548;18.828;2022-11-20T15:31:13;9.00;;;5.75;;
51238;SDS011;38154;47.548;18.828;2022-11-20T15:33:40;15.88;;;7.32;;
51238;SDS011;38154;47.548;18.828;2022-11-20T15:36:06;18.60;;;7.72;;
51238;SDS011;38154;47.548;18.828;2022-11-20T15:38:32;23.08;;;9.27;;
51238;SDS011;38154;47.548;18.828;2022-11-20T15:40:58;17.92;;;8.02;;
51238;SDS011;38154;47.548;18.828;2022-11-20T15:43:24;19.33;;;6.95;;
51238;SDS011;38154;47.548;18.828;2022-11-20T15:45:54;20.48;;;8.10;;
51238;SDS011;38154;47.548;18.828;2022-11-20T15:48:32;15.05;;;6.65;;
51238;SDS011;38154;47.548;18.828;2022-11-20T15:53:37;20.00;;;7.05;;
51238;SDS011;38154;47.548;18.828;2022-11-20T15:56:04;23.62;;;10.82;;
51238;SDS011;38154;47.548;18.828;2022-11-20T15:58:30;24.15;;;8.35;;
51238;SDS011;38154;47.548;18.828;2022-11-20T16:00:56;22.80;;;10.73;;
51238;SDS011;38154;47.548;18.828;2022-11-20T16:03:22;18.77;;;7.55;;
51238;SDS011;38154;47.548;18.828;2022-11-20T16:05:48;25.08;;;9.40;;
51238;SDS011;38154;47.548;18.828;2022-11-20T16:08:14;35.38;;;10.50;;
51238;SDS011;38154;47.548;18.828;2022-11-20T16:10:40;16.23;;;7.75;;
51238;SDS011;38154;47.548;18.828;2022-11-20T16:13:14;20.10;;;7.97;;
51238;SDS011;38154;47.548;18.828;2022-11-20T16:16:01;13.23;;;6.37;;